createdAt,value
2017-08-30T00:01:01.354Z,99.99
2017-08-30T00:02:24.192Z,99.99
2017-08-30T00:03:46.654Z,99.99
2017-08-30T00:05:08.474Z,99.99
2017-08-30T00:06:29.974Z,99.99
2017-08-30T00:07:52.373Z,99.99
2017-08-30T00:09:14.026Z,99.99
2017-08-30T00:10:35.534Z,99.99
2017-08-30T00:11:57.740Z,99.99
2017-08-30T00:13:19.808Z,99.99
2017-08-30T00:14:41.783Z,99.99
2017-08-30T00:16:03.282Z,99.99
2017-08-30T00:17:25.434Z,99.99
2017-08-30T00:18:48.164Z,99.99
2017-08-30T00:20:10.401Z,99.99
2017-08-30T00:21:31.920Z,99.99
2017-08-30T00:22:53.116Z,99.99
2017-08-30T00:24:15.023Z,99.99
2017-08-30T00:25:36.839Z,99.99
2017-08-30T00:26:58.996Z,99.99
2017-08-30T00:28:21.163Z,99.99
2017-08-30T00:29:42.580Z,99.99
2017-08-30T00:31:04.106Z,99.99
2017-08-30T00:32:25.631Z,99.99
2017-08-30T00:33:47.451Z,99.99
2017-08-30T00:35:09.947Z,99.99
2017-08-30T00:36:32.134Z,99.99
2017-08-30T00:37:54.277Z,99.99
2017-08-30T00:39:16.223Z,99.99
2017-08-30T00:40:38.097Z,99.99
2017-08-30T00:41:59.605Z,99.99
2017-08-30T00:43:21.134Z,99.99
2017-08-30T00:44:43.634Z,99.99
2017-08-30T00:46:05.807Z,99.99
2017-08-30T00:47:27.681Z,99.99
2017-08-30T00:48:49.995Z,99.99
2017-08-30T00:50:11.827Z,99.99
2017-08-30T00:51:34.259Z,99.99
2017-08-30T00:52:56.726Z,99.99
2017-08-30T00:54:18.551Z,99.99
2017-08-30T00:55:40.404Z,99.99
2017-08-30T00:57:02.544Z,99.99
2017-08-30T00:58:24.335Z,99.99
2017-08-30T00:59:45.875Z,99.99
2017-08-30T01:01:07.853Z,99.99
2017-08-30T01:02:30.057Z,99.99
2017-08-30T01:03:51.918Z,99.99
2017-08-30T01:05:13.104Z,99.99
2017-08-30T01:06:35.252Z,99.99
2017-08-30T01:07:57.019Z,99.99
2017-08-30T01:09:19.281Z,99.99
2017-08-30T01:10:41.514Z,99.99
2017-08-30T01:12:03.013Z,99.99
2017-08-30T01:13:24.780Z,99.99
2017-08-30T01:14:46.974Z,99.99
2017-08-30T01:16:09.123Z,99.99
2017-08-30T01:17:31.039Z,99.99
2017-08-30T01:18:53.556Z,99.99
2017-08-30T01:20:15.424Z,99.99
2017-08-30T01:21:37.578Z,99.99
2017-08-30T01:22:59.554Z,99.99
2017-08-30T01:24:21.684Z,99.99
2017-08-30T01:25:43.517Z,99.99
2017-08-30T01:27:05.665Z,99.99
2017-08-30T01:28:28.144Z,99.99
2017-08-30T01:29:50.305Z,99.99
2017-08-30T01:31:12.828Z,99.99
2017-08-30T01:32:34.974Z,99.99
2017-08-30T01:33:56.939Z,99.99
2017-08-30T01:35:19.401Z,99.99
2017-08-30T01:36:41.226Z,99.99
2017-08-30T01:38:03.704Z,99.99
2017-08-30T01:39:25.841Z,99.99
2017-08-30T01:40:48.246Z,99.99
2017-08-30T01:42:10.725Z,99.99
2017-08-30T01:43:32.243Z,99.99
2017-08-30T01:44:54.391Z,99.99
2017-08-30T01:46:16.033Z,99.99
2017-08-30T01:47:37.554Z,99.99
2017-08-30T01:48:59.536Z,99.99
2017-08-30T01:50:21.365Z,99.99
2017-08-30T01:51:43.451Z,99.99
2017-08-30T01:53:05.981Z,99.99
2017-08-30T01:54:28.119Z,99.99
2017-08-30T01:55:50.616Z,99.99
2017-08-30T01:57:13.064Z,99.99
2017-08-30T01:58:35.631Z,99.99
2017-08-30T01:59:57.467Z,99.99
2017-08-30T02:01:19.614Z,99.99
2017-08-30T02:02:41.810Z,99.99
2017-08-30T02:04:03.945Z,99.99
2017-08-30T02:05:25.754Z,99.99
2017-08-30T02:06:47.280Z,99.99
2017-08-30T02:08:08.794Z,99.99
2017-08-30T02:09:30.303Z,99.99
2017-08-30T02:10:52.445Z,99.99
2017-08-30T02:12:14.951Z,99.99
2017-08-30T02:13:37.344Z,99.99
2017-08-30T02:14:58.864Z,99.99
2017-08-30T02:16:20.694Z,99.99
2017-08-30T02:17:42.834Z,99.99
2017-08-30T02:19:05.243Z,99.99
2017-08-30T02:20:27.388Z,99.99
2017-08-30T02:21:49.215Z,99.99
2017-08-30T02:23:10.745Z,99.99
2017-08-30T02:24:32.935Z,99.99
2017-08-30T02:25:55.104Z,99.99
2017-08-30T02:27:17.271Z,99.99
2017-08-30T02:28:38.450Z,99.99
2017-08-30T02:29:59.886Z,99.99
2017-08-30T02:31:21.381Z,99.99
2017-08-30T02:32:42.887Z,99.99
2017-08-30T02:34:05.055Z,99.99
2017-08-30T02:35:26.171Z,99.99
2017-08-30T02:36:48.084Z,99.99
2017-08-30T02:38:09.615Z,99.99
2017-08-30T02:39:31.771Z,99.99
2017-08-30T02:40:54.015Z,99.99
2017-08-30T02:42:16.501Z,99.99
2017-08-30T02:43:38.345Z,99.99
2017-08-30T02:45:00.924Z,99.99
2017-08-30T02:46:23.685Z,99.99
2017-08-30T02:47:45.787Z,99.99
2017-08-30T02:49:07.393Z,99.99
2017-08-30T02:50:29.525Z,99.99
2017-08-30T02:51:51.726Z,99.99
2017-08-30T02:53:13.556Z,99.99
2017-08-30T02:54:35.372Z,99.99
2017-08-30T02:55:57.516Z,99.99
2017-08-30T02:57:19.457Z,99.99
2017-08-30T02:58:41.965Z,99.99
2017-08-30T03:00:04.132Z,99.99
2017-08-30T03:01:26.274Z,99.99
2017-08-30T03:02:48.469Z,99.99
2017-08-30T03:04:10.944Z,99.99
2017-08-30T03:05:33.106Z,99.99
2017-08-30T03:06:54.964Z,99.99
2017-08-30T03:08:16.723Z,99.99
2017-08-30T03:09:38.556Z,99.99
2017-08-30T03:11:00.722Z,99.99
2017-08-30T03:12:22.652Z,99.99
2017-08-30T03:13:44.799Z,99.99
2017-08-30T03:15:06.961Z,99.99
2017-08-30T03:16:29.153Z,99.99
2017-08-30T03:17:50.999Z,99.99
2017-08-30T03:19:13.572Z,99.99
2017-08-30T03:20:35.393Z,99.99
2017-08-30T03:21:57.540Z,99.99
2017-08-30T03:23:19.492Z,99.99
2017-08-30T03:24:41.673Z,99.99
2017-08-30T03:26:03.183Z,99.99
2017-08-30T03:27:25.019Z,99.99
2017-08-30T03:28:47.313Z,99.99
2017-08-30T03:30:10.013Z,99.99
2017-08-30T03:31:31.851Z,99.99
2017-08-30T03:32:54.253Z,99.99
2017-08-30T03:34:15.766Z,99.99
2017-08-30T03:35:38.343Z,99.99
2017-08-30T03:36:59.553Z,99.99
2017-08-30T03:38:21.103Z,99.99
2017-08-30T03:39:43.244Z,99.99
2017-08-30T03:41:05.752Z,99.99
2017-08-30T03:42:27.584Z,99.99
2017-08-30T03:43:49.187Z,99.99
2017-08-30T03:45:11.342Z,99.99
2017-08-30T03:46:32.847Z,99.99
2017-08-30T03:47:55.003Z,99.99
2017-08-30T03:49:16.872Z,99.99
2017-08-30T03:50:38.710Z,99.99
2017-08-30T03:52:00.841Z,99.99
2017-08-30T03:53:23.002Z,99.99
2017-08-30T03:54:45.193Z,99.99
2017-08-30T03:56:07.037Z,99.99
2017-08-30T03:57:29.293Z,99.99
2017-08-30T03:58:51.427Z,99.99
2017-08-30T04:00:12.614Z,99.99
2017-08-30T04:01:34.766Z,99.99
2017-08-30T04:02:57.174Z,99.99
2017-08-30T04:04:19.653Z,99.99
2017-08-30T04:05:41.694Z,99.99
2017-08-30T04:07:03.520Z,99.99
2017-08-30T04:08:25.602Z,99.99
2017-08-30T04:09:47.433Z,99.99
2017-08-30T04:11:09.302Z,99.99
2017-08-30T04:12:31.450Z,99.99
2017-08-30T04:13:54.042Z,99.99
2017-08-30T04:15:16.208Z,99.99
2017-08-30T04:16:37.384Z,99.99
2017-08-30T04:17:58.583Z,99.99
2017-08-30T04:19:20.764Z,99.99
2017-08-30T04:20:41.941Z,99.99
2017-08-30T04:22:03.133Z,99.99
2017-08-30T04:23:24.653Z,99.99
2017-08-30T04:24:46.782Z,99.99
2017-08-30T04:26:08.963Z,99.99
2017-08-30T04:27:31.100Z,99.99
2017-08-30T04:28:52.600Z,99.99
2017-08-30T04:30:14.665Z,99.99
2017-08-30T04:31:37.157Z,99.99
2017-08-30T04:32:58.995Z,99.99
2017-08-30T04:34:20.832Z,99.99
2017-08-30T04:35:42.290Z,99.99
2017-08-30T04:37:04.438Z,99.99
2017-08-30T04:38:26.602Z,99.99
2017-08-30T04:39:48.823Z,99.99
2017-08-30T04:41:11.272Z,99.99
2017-08-30T04:42:32.461Z,99.99
2017-08-30T04:43:53.964Z,99.99
2017-08-30T04:45:15.894Z,99.99
2017-08-30T04:46:38.285Z,99.99
2017-08-30T04:48:00.146Z,99.99
2017-08-30T04:49:22.307Z,99.99
2017-08-30T04:50:44.154Z,99.99
2017-08-30T04:52:05.903Z,99.99
2017-08-30T04:53:27.745Z,99.99
2017-08-30T04:54:49.910Z,99.99
2017-08-30T04:56:11.751Z,99.99
2017-08-30T04:57:34.018Z,99.99
2017-08-30T04:58:55.856Z,99.99
2017-08-30T05:00:17.690Z,99.99
2017-08-30T05:01:39.862Z,99.99
2017-08-30T05:03:02.362Z,99.99
2017-08-30T05:04:24.910Z,99.99
2017-08-30T05:05:46.774Z,99.99
2017-08-30T05:07:08.604Z,99.99
2017-08-30T05:08:31.483Z,99.99
2017-08-30T05:09:53.312Z,99.99
2017-08-30T05:11:14.946Z,99.99
2017-08-30T05:12:36.779Z,99.99
2017-08-30T05:13:59.385Z,99.99
2017-08-30T05:15:21.861Z,99.99
2017-08-30T05:16:43.992Z,99.99
2017-08-30T05:18:05.808Z,99.99
2017-08-30T05:19:27.951Z,99.99
2017-08-30T05:20:49.782Z,99.99
2017-08-30T05:22:11.300Z,99.99
2017-08-30T05:23:33.463Z,99.99
2017-08-30T05:24:56.184Z,99.99
2017-08-30T05:26:18.670Z,99.99
2017-08-30T05:27:41.054Z,99.99
2017-08-30T05:29:03.202Z,99.99
2017-08-30T05:30:25.308Z,99.99
2017-08-30T05:31:47.126Z,99.99
2017-08-30T05:33:09.295Z,99.99
2017-08-30T05:34:31.453Z,99.99
2017-08-30T05:35:53.550Z,99.99
2017-08-30T05:37:15.692Z,99.99
2017-08-30T05:38:37.526Z,99.99
2017-08-30T05:39:59.737Z,99.99
2017-08-30T05:41:21.823Z,99.99
2017-08-30T05:42:44.016Z,99.99
2017-08-30T05:44:06.203Z,99.99
2017-08-30T05:45:27.763Z,99.99
2017-08-30T05:46:49.898Z,99.99
2017-08-30T05:48:12.530Z,99.99
2017-08-30T05:49:34.353Z,99.99
2017-08-30T05:50:55.894Z,99.99
2017-08-30T05:52:18.419Z,99.99
2017-08-30T05:53:40.263Z,99.99
2017-08-30T05:55:01.792Z,99.99
2017-08-30T05:56:23.631Z,99.99
2017-08-30T05:57:46.233Z,99.99
2017-08-30T05:59:08.394Z,99.99
2017-08-30T06:00:30.902Z,99.99
2017-08-30T06:01:52.085Z,99.99
2017-08-30T06:03:14.479Z,99.99
2017-08-30T06:04:36.953Z,99.99
2017-08-30T06:05:59.520Z,99.99
2017-08-30T06:07:21.042Z,99.99
2017-08-30T06:08:43.890Z,99.99
2017-08-30T06:10:06.033Z,99.99
2017-08-30T06:11:28.205Z,99.99
2017-08-30T06:12:50.672Z,99.99
2017-08-30T06:14:12.553Z,99.99
2017-08-30T06:15:35.039Z,99.99
2017-08-30T06:16:57.653Z,99.99
2017-08-30T06:18:19.830Z,99.99
2017-08-30T06:19:42.101Z,99.99
2017-08-30T06:21:04.652Z,99.99
2017-08-30T06:22:27.133Z,99.99
2017-08-30T06:23:49.423Z,99.99
2017-08-30T06:25:12.213Z,99.99
2017-08-30T06:26:33.405Z,99.99
2017-08-30T06:27:55.292Z,99.17
2017-08-30T06:29:17.155Z,99.17
2017-08-30T06:30:39.231Z,99.27
2017-08-30T06:32:01.424Z,99.99
2017-08-30T06:33:23.613Z,99.99
2017-08-30T06:34:46.108Z,99.99
2017-08-30T06:36:07.885Z,99.99
2017-08-30T06:37:30.386Z,99.99
2017-08-30T06:38:52.300Z,99.99
2017-08-30T06:40:14.192Z,99.99
2017-08-30T06:41:36.672Z,99.99
2017-08-30T06:42:58.863Z,99.99
2017-08-30T06:44:21.058Z,99.99
2017-08-30T06:45:42.912Z,99.99
2017-08-30T06:47:05.032Z,99.99
2017-08-30T06:48:26.230Z,99.99
2017-08-30T06:49:47.789Z,99.99
2017-08-30T06:51:09.663Z,99.99
2017-08-30T06:52:32.176Z,99.99
2017-08-30T06:53:54.663Z,99.99
2017-08-30T06:55:16.960Z,99.99
2017-08-30T06:56:39.110Z,99.99
2017-08-30T06:58:01.196Z,99.99
2017-08-30T06:59:23.031Z,99.99
2017-08-30T07:00:45.605Z,99.99
2017-08-30T07:02:07.770Z,97.86
2017-08-30T07:03:30.359Z,94.65
2017-08-30T07:04:52.346Z,93
2017-08-30T07:06:14.526Z,90.91
2017-08-30T07:07:37.033Z,90.22
2017-08-30T07:08:58.864Z,89.1
2017-08-30T07:10:21.343Z,88.27
2017-08-30T07:11:43.517Z,87.53
2017-08-30T07:13:05.346Z,88.6
2017-08-30T07:14:27.827Z,90.12
2017-08-30T07:15:49.996Z,91.63
2017-08-30T07:17:11.876Z,94.02
2017-08-30T07:18:34.608Z,98.05
2017-08-30T07:19:57.336Z,99.99
2017-08-30T07:21:19.513Z,99.99
2017-08-30T07:22:41.696Z,99.99
2017-08-30T07:24:03.858Z,99.99
2017-08-30T07:25:25.956Z,99.99
2017-08-30T07:26:48.440Z,99.99
2017-08-30T07:28:10.275Z,99.99
2017-08-30T07:29:32.116Z,99.99
2017-08-30T07:30:54.934Z,99.99
2017-08-30T07:32:16.843Z,99.99
2017-08-30T07:33:38.386Z,99.99
2017-08-30T07:35:00.913Z,99.99
2017-08-30T07:36:22.981Z,99.99
2017-08-30T07:37:44.883Z,99.99
2017-08-30T07:39:07.368Z,99.99
2017-08-30T07:40:29.843Z,99.99
2017-08-30T07:41:52.279Z,99.99
2017-08-30T07:43:14.839Z,99.99
2017-08-30T07:44:36.723Z,99.99
2017-08-30T07:45:58.564Z,99.99
2017-08-30T07:47:21.176Z,99.99
2017-08-30T07:48:43.036Z,99.99
2017-08-30T07:50:05.161Z,99.8
2017-08-30T07:51:27.317Z,99.46
2017-08-30T07:52:49.562Z,98.88
2017-08-30T07:54:11.722Z,98.83
2017-08-30T07:55:33.884Z,99.17
2017-08-30T07:56:56.198Z,99.37
2017-08-30T07:58:18.277Z,99.07
2017-08-30T07:59:40.454Z,99.99
2017-08-30T08:01:02.873Z,99.99
2017-08-30T08:02:24.068Z,99.99
2017-08-30T08:03:45.903Z,99.99
2017-08-30T08:05:07.759Z,99.99
2017-08-30T08:06:30.243Z,99.99
2017-08-30T08:07:52.032Z,99.99
2017-08-30T08:09:14.062Z,99.99
2017-08-30T08:10:36.314Z,99.99
2017-08-30T08:11:58.483Z,99.99
2017-08-30T08:13:20.006Z,99.99
2017-08-30T08:14:42.490Z,99.32
2017-08-30T08:16:04.700Z,98.39
2017-08-30T08:17:26.963Z,97.86
2017-08-30T08:18:48.882Z,96.94
2017-08-30T08:20:11.333Z,96.69
2017-08-30T08:21:33.581Z,97.52
2017-08-30T08:22:55.732Z,97.56
2017-08-30T08:24:16.940Z,97.47
2017-08-30T08:25:39.469Z,97.33
2017-08-30T08:27:01.101Z,97.52
2017-08-30T08:28:22.941Z,96.55
2017-08-30T08:29:45.092Z,95.62
2017-08-30T08:31:08.096Z,94.99
2017-08-30T08:32:30.253Z,95.77
2017-08-30T08:33:52.723Z,95.92
2017-08-30T08:35:14.253Z,96.64
2017-08-30T08:36:36.341Z,95.82
2017-08-30T08:37:58.309Z,94.6
2017-08-30T08:39:20.482Z,94.36
2017-08-30T08:40:42.970Z,92.02
2017-08-30T08:42:04.763Z,91.58
2017-08-30T08:43:27.245Z,91.52
2017-08-30T08:44:49.086Z,91.72
2017-08-30T08:46:11.603Z,88.02
2017-08-30T08:47:34.025Z,89.14
2017-08-30T08:48:55.863Z,89.09
2017-08-30T08:50:17.700Z,89.67
2017-08-30T08:51:39.552Z,90.41
2017-08-30T08:53:01.764Z,90.22
2017-08-30T08:54:24.243Z,90.31
2017-08-30T08:55:46.743Z,89.97
2017-08-30T08:57:08.625Z,89.92
2017-08-30T08:58:30.781Z,88.31
2017-08-30T08:59:52.309Z,88.55
2017-08-30T09:01:14.150Z,87.87
2017-08-30T09:02:36.012Z,88.45
2017-08-30T09:03:58.841Z,88.16
2017-08-30T09:05:21.012Z,89.09
2017-08-30T09:06:42.944Z,88.06
2017-08-30T09:08:04.836Z,89.04
2017-08-30T09:09:27.450Z,89
2017-08-30T09:10:49.292Z,88.31
2017-08-30T09:12:10.892Z,87.57
2017-08-30T09:13:33.063Z,87.33
2017-08-30T09:14:55.890Z,86.99
2017-08-30T09:16:18.072Z,88.16
2017-08-30T09:17:40.226Z,88.51
2017-08-30T09:19:02.064Z,89.73
2017-08-30T09:20:24.812Z,89.73
2017-08-30T09:21:46.984Z,89.19
2017-08-30T09:23:09.131Z,88.8
2017-08-30T09:24:31.312Z,90.55
2017-08-30T09:25:53.721Z,91.44
2017-08-30T09:27:16.262Z,92.07
2017-08-30T09:28:38.465Z,93.73
2017-08-30T09:30:00.642Z,94.4
2017-08-30T09:31:23.465Z,95.38
2017-08-30T09:32:45.933Z,95.18
2017-08-30T09:34:08.432Z,94.84
2017-08-30T09:35:30.912Z,93.63
2017-08-30T09:36:53.340Z,93.19
2017-08-30T09:38:15.182Z,91.87
2017-08-30T09:39:37.641Z,91.14
2017-08-30T09:40:59.491Z,91.42
2017-08-30T09:42:21.909Z,90.94
2017-08-30T09:43:43.449Z,92.5
2017-08-30T09:45:05.978Z,92.21
2017-08-30T09:46:27.932Z,93.72
2017-08-30T09:47:50.394Z,95.18
2017-08-30T09:49:12.922Z,94.5
2017-08-30T09:50:35.401Z,94.35
2017-08-30T09:51:57.781Z,93.96
2017-08-30T09:53:20.679Z,93.72
2017-08-30T09:54:42.843Z,94.11
2017-08-30T09:56:04.516Z,92.16
2017-08-30T09:57:25.702Z,91.14
2017-08-30T09:58:48.451Z,93.29
2017-08-30T10:00:10.291Z,93.09
2017-08-30T10:01:31.812Z,92.11
2017-08-30T10:02:53.667Z,92.26
2017-08-30T10:04:15.822Z,93.23
2017-08-30T10:05:38.170Z,93.52
2017-08-30T10:07:00.371Z,93.82
2017-08-30T10:08:22.358Z,95.18
2017-08-30T10:09:44.143Z,94.89
2017-08-30T10:11:06.122Z,94.74
2017-08-30T10:12:27.628Z,95.13
2017-08-30T10:13:49.884Z,95.13
2017-08-30T10:15:12.625Z,96.74
2017-08-30T10:16:34.152Z,96.69
2017-08-30T10:17:56.632Z,99.51
2017-08-30T10:19:18.473Z,99.99
2017-08-30T10:20:40.913Z,99.99
2017-08-30T10:22:03.063Z,99.99
2017-08-30T10:23:25.248Z,99.99
2017-08-30T10:24:47.092Z,99.99
2017-08-30T10:26:09.065Z,99.99
2017-08-30T10:27:31.240Z,99.99
2017-08-30T10:28:53.503Z,99.99
2017-08-30T10:30:15.672Z,99.99
2017-08-30T10:31:37.761Z,99.99
2017-08-30T10:33:00.251Z,99.99
2017-08-30T10:34:22.206Z,99.99
2017-08-30T10:35:43.742Z,99.99
2017-08-30T10:37:05.292Z,99.99
2017-08-30T10:38:26.822Z,99.99
2017-08-30T10:39:49.321Z,99.99
2017-08-30T10:41:10.841Z,99.99
2017-08-30T10:42:33.308Z,99.99
2017-08-30T10:43:55.489Z,99.99
2017-08-30T10:45:17.751Z,99.99
2017-08-30T10:46:40.241Z,99.99
2017-08-30T10:48:02.020Z,99.99
2017-08-30T10:49:23.868Z,99.99
2017-08-30T10:50:46.044Z,99.99
2017-08-30T10:52:07.885Z,99.99
2017-08-30T10:53:29.722Z,99.99
2017-08-30T10:54:52.212Z,99.99
2017-08-30T10:56:14.051Z,99.99
2017-08-30T10:57:36.281Z,99.99
2017-08-30T10:58:58.422Z,99.99
2017-08-30T11:00:20.076Z,99.99
2017-08-30T11:01:41.935Z,99.99
2017-08-30T11:03:04.244Z,99.99
2017-08-30T11:04:27.241Z,99.7
2017-08-30T11:05:48.825Z,99.99
2017-08-30T11:07:10.642Z,99.99
2017-08-30T11:08:32.490Z,99.99
2017-08-30T11:09:54.303Z,99.99
2017-08-30T11:11:16.799Z,98.68
2017-08-30T11:12:38.996Z,96.98
2017-08-30T11:14:01.204Z,98.78
2017-08-30T11:15:23.993Z,98.54
2017-08-30T11:16:46.276Z,98.39
2017-08-30T11:18:08.749Z,98.54
2017-08-30T11:19:30.613Z,96.69
2017-08-30T11:20:52.864Z,97.76
2017-08-30T11:22:15.051Z,98.58
2017-08-30T11:23:37.212Z,99.99
2017-08-30T11:24:59.052Z,99.99
2017-08-30T11:26:21.566Z,99.99
2017-08-30T11:27:43.732Z,99.99
2017-08-30T11:29:05.609Z,99.99
2017-08-30T11:30:27.165Z,99.99
2017-08-30T11:31:49.723Z,99.99
2017-08-30T11:33:11.573Z,99.99
2017-08-30T11:34:33.424Z,99.99
2017-08-30T11:35:55.588Z,99.99
2017-08-30T11:37:18.046Z,99.99
2017-08-30T11:38:40.348Z,99.99
2017-08-30T11:40:02.842Z,99.99
2017-08-30T11:41:24.365Z,99.99
2017-08-30T11:42:47.211Z,99.99
2017-08-30T11:44:09.421Z,99.99
2017-08-30T11:45:31.663Z,99.99
2017-08-30T11:46:53.841Z,99.99
2017-08-30T11:48:16.423Z,99.99
2017-08-30T11:49:38.578Z,99.99
2017-08-30T11:51:00.752Z,99.99
2017-08-30T11:52:22.672Z,99.99
2017-08-30T11:53:43.960Z,99.99
2017-08-30T11:55:05.866Z,99.99
2017-08-30T11:56:27.381Z,99.99
2017-08-30T11:57:48.945Z,99.99
2017-08-30T11:59:11.775Z,99.99
2017-08-30T12:00:33.942Z,99.99
2017-08-30T12:01:55.636Z,99.99
2017-08-30T12:03:17.814Z,99.99
2017-08-30T12:04:39.747Z,99.99
2017-08-30T12:06:02.071Z,99.99
2017-08-30T12:07:23.915Z,99.99
2017-08-30T12:08:46.074Z,99.99
2017-08-30T12:10:07.956Z,99.99
2017-08-30T12:11:30.453Z,99.99
2017-08-30T12:12:52.626Z,99.99
2017-08-30T12:14:15.113Z,99.99
2017-08-30T12:15:37.296Z,99.99
2017-08-30T12:16:59.800Z,99.99
2017-08-30T12:18:22.015Z,99.99
2017-08-30T12:19:44.314Z,99.99
2017-08-30T12:21:06.741Z,99.99
2017-08-30T12:22:28.926Z,99.99
2017-08-30T12:23:51.085Z,99.99
2017-08-30T12:25:12.614Z,99.99
2017-08-30T12:26:34.503Z,99.99
2017-08-30T12:27:55.692Z,99.99
2017-08-30T12:29:18.020Z,99.99
2017-08-30T12:30:39.873Z,99.99
2017-08-30T12:32:02.698Z,99.99
2017-08-30T12:33:25.225Z,99.99
2017-08-30T12:34:47.398Z,99.99
2017-08-30T12:36:09.905Z,99.99
2017-08-30T12:37:32.753Z,99.99
2017-08-30T12:38:54.985Z,99.99
2017-08-30T12:40:17.215Z,99.99
2017-08-30T12:41:39.715Z,99.99
2017-08-30T12:43:02.578Z,99.99
2017-08-30T12:44:25.075Z,99.99
2017-08-30T12:45:46.932Z,99.99
2017-08-30T12:47:08.801Z,99.99
2017-08-30T12:48:31.693Z,99.99
2017-08-30T12:49:54.193Z,99.99
2017-08-30T12:51:16.375Z,99.99
2017-08-30T12:52:39.191Z,99.99
2017-08-30T12:54:01.623Z,99.99
2017-08-30T12:55:23.914Z,99.99
2017-08-30T12:56:46.088Z,99.99
2017-08-30T12:58:08.243Z,99.99
2017-08-30T12:59:30.981Z,99.99
2017-08-30T13:00:54.222Z,99.99
2017-08-30T13:02:16.397Z,99.99
2017-08-30T13:03:38.576Z,99.99
2017-08-30T13:05:01.373Z,99.99
2017-08-30T13:06:23.313Z,99.99
2017-08-30T13:07:45.936Z,99.99
2017-08-30T13:09:08.103Z,99.99
2017-08-30T13:10:30.621Z,99.99
2017-08-30T13:11:53.131Z,99.99
2017-08-30T13:13:15.356Z,99.99
2017-08-30T13:14:37.525Z,99.99
2017-08-30T13:15:59.782Z,99.99
2017-08-30T13:17:22.390Z,99.99
2017-08-30T13:18:44.568Z,99.99
2017-08-30T13:20:06.460Z,99.99
2017-08-30T13:21:28.431Z,99.99
2017-08-30T13:22:50.671Z,99.99
2017-08-30T13:24:12.601Z,99.99
2017-08-30T13:25:34.451Z,99.99
2017-08-30T13:26:56.958Z,99.99
2017-08-30T13:28:18.951Z,99.99
2017-08-30T13:29:41.220Z,99.99
2017-08-30T13:31:03.739Z,99.99
2017-08-30T13:32:25.941Z,99.99
2017-08-30T13:33:48.128Z,99.99
2017-08-30T13:35:10.010Z,99.99
2017-08-30T13:36:31.841Z,99.99
2017-08-30T13:37:54.371Z,99.99
2017-08-30T13:39:16.653Z,99.99
2017-08-30T13:40:38.503Z,99.99
2017-08-30T13:42:00.668Z,99.99
2017-08-30T13:43:23.101Z,99.99
2017-08-30T13:44:45.346Z,99.99
2017-08-30T13:46:06.871Z,99.99
2017-08-30T13:47:29.348Z,99.99
2017-08-30T13:48:51.582Z,99.99
2017-08-30T13:50:13.921Z,99.99
2017-08-30T13:51:36.224Z,99.99
2017-08-30T13:52:58.725Z,99.99
2017-08-30T13:54:20.635Z,99.99
2017-08-30T13:55:42.909Z,99.99
2017-08-30T13:57:05.100Z,99.99
2017-08-30T13:58:26.948Z,99.99
2017-08-30T13:59:49.257Z,99.99
2017-08-30T14:01:11.881Z,99.99
2017-08-30T14:02:34.409Z,99.99
2017-08-30T14:03:56.609Z,99.99
2017-08-30T14:05:19.373Z,99.99
2017-08-30T14:06:41.680Z,99.99
2017-08-30T14:08:04.173Z,99.99
2017-08-30T14:09:26.781Z,99.99
2017-08-30T14:10:49.530Z,99.99
2017-08-30T14:12:11.401Z,99.99
2017-08-30T14:13:33.592Z,99.99
2017-08-30T14:14:55.144Z,99.99
2017-08-30T14:16:17.923Z,99.99
2017-08-30T14:17:39.901Z,99.99
2017-08-30T14:19:02.455Z,99.99
2017-08-30T14:20:24.710Z,99.99
2017-08-30T14:21:47.523Z,99.99
2017-08-30T14:23:09.713Z,99.99
2017-08-30T14:24:32.371Z,99.99
2017-08-30T14:25:54.222Z,99.99
2017-08-30T14:27:16.579Z,99.99
2017-08-30T14:28:38.757Z,99.99
2017-08-30T14:30:00.645Z,99.99
2017-08-30T14:31:22.872Z,99.99
2017-08-30T14:32:45.400Z,99.99
2017-08-30T14:34:07.305Z,99.99
2017-08-30T14:35:29.521Z,99.99
2017-08-30T14:36:51.711Z,99.99
2017-08-30T14:38:13.932Z,99.99
2017-08-30T14:39:36.104Z,99.99
2017-08-30T14:40:57.973Z,99.99
2017-08-30T14:42:19.883Z,99.99
2017-08-30T14:43:42.769Z,99.99
2017-08-30T14:45:05.401Z,99.99
2017-08-30T14:46:27.592Z,99.99
2017-08-30T14:47:49.775Z,99.99
2017-08-30T14:49:12.411Z,99.99
2017-08-30T14:50:34.610Z,99.99
2017-08-30T14:51:57.141Z,99.99
2017-08-30T14:53:19.661Z,99.99
2017-08-30T14:54:42.542Z,99.99
2017-08-30T14:56:05.052Z,99.99
2017-08-30T14:57:27.654Z,99.99
2017-08-30T14:58:50.010Z,99.99
2017-08-30T15:00:12.525Z,99.99
2017-08-30T15:01:34.803Z,99.99
2017-08-30T15:02:56.999Z,99.99
2017-08-30T15:04:18.859Z,99.99
2017-08-30T15:05:41.080Z,99.99
2017-08-30T15:07:03.591Z,99.99
2017-08-30T15:08:26.108Z,99.99
2017-08-30T15:09:48.011Z,99.99
2017-08-30T15:11:10.543Z,99.99
2017-08-30T15:12:32.756Z,99.99
2017-08-30T15:13:54.938Z,99.99
2017-08-30T15:15:17.112Z,99.99
2017-08-30T15:16:39.886Z,99.99
2017-08-30T15:18:02.518Z,99.99
2017-08-30T15:19:24.043Z,99.99
2017-08-30T15:20:46.593Z,99.99
2017-08-30T15:22:09.142Z,99.99
2017-08-30T15:23:30.991Z,99.99
2017-08-30T15:24:53.521Z,99.99
2017-08-30T15:26:15.378Z,99.99
2017-08-30T15:27:38.242Z,99.99
2017-08-30T15:29:00.197Z,99.99
2017-08-30T15:30:21.723Z,99.99
2017-08-30T15:31:44.230Z,99.99
2017-08-30T15:33:06.905Z,99.99
2017-08-30T15:34:29.429Z,99.99
2017-08-30T15:35:51.302Z,99.99
2017-08-30T15:37:13.276Z,99.99
2017-08-30T15:38:35.793Z,99.99
2017-08-30T15:39:57.998Z,99.99
2017-08-30T15:41:20.065Z,99.99
2017-08-30T15:42:42.712Z,99.99
2017-08-30T15:44:05.473Z,99.99
2017-08-30T15:45:28.004Z,99.99
2017-08-30T15:46:50.521Z,99.99
2017-08-30T15:48:12.999Z,99.99
2017-08-30T15:49:35.522Z,99.99
2017-08-30T15:50:57.698Z,99.99
2017-08-30T15:52:20.200Z,99.99
2017-08-30T15:53:42.680Z,99.99
2017-08-30T15:55:04.330Z,99.99
2017-08-30T15:56:26.641Z,99.99
2017-08-30T15:57:48.830Z,99.99
2017-08-30T15:59:11.021Z,99.99
2017-08-30T16:00:33.963Z,99.99
2017-08-30T16:01:56.132Z,99.99
2017-08-30T16:03:18.301Z,99.99
2017-08-30T16:04:40.152Z,99.99
2017-08-30T16:06:03.067Z,99.99
2017-08-30T16:07:25.690Z,99.99
2017-08-30T16:08:47.520Z,99.99
2017-08-30T16:10:09.713Z,99.99
2017-08-30T16:11:32.259Z,99.99
2017-08-30T16:12:54.877Z,99.99
2017-08-30T16:14:17.052Z,99.99
2017-08-30T16:15:39.233Z,99.99
2017-08-30T16:17:01.928Z,99.99
2017-08-30T16:18:24.534Z,99.99
2017-08-30T16:19:47.061Z,99.99
2017-08-30T16:21:09.669Z,99.99
2017-08-30T16:22:32.541Z,99.99
2017-08-30T16:23:54.930Z,99.99
2017-08-30T16:25:16.809Z,99.99
2017-08-30T16:26:39.010Z,99.99
2017-08-30T16:28:01.759Z,99.99
2017-08-30T16:29:23.955Z,99.99
2017-08-30T16:30:46.600Z,99.99
2017-08-30T16:32:08.474Z,99.99
2017-08-30T16:33:30.712Z,99.99
2017-08-30T16:34:53.300Z,99.99
2017-08-30T16:36:15.842Z,99.99
2017-08-30T16:37:38.032Z,99.99
2017-08-30T16:39:00.909Z,99.99
2017-08-30T16:40:23.108Z,99.99
2017-08-30T16:41:45.021Z,99.99
2017-08-30T16:43:07.219Z,99.99
2017-08-30T16:44:30.069Z,99.99
2017-08-30T16:45:52.454Z,99.99
2017-08-30T16:47:14.383Z,99.99
2017-08-30T16:48:36.892Z,99.99
2017-08-30T16:49:59.925Z,99.99
2017-08-30T16:51:22.127Z,99.99
2017-08-30T16:52:44.714Z,99.99
2017-08-30T16:54:07.239Z,99.99
2017-08-30T16:55:29.774Z,99.99
2017-08-30T16:56:52.049Z,99.99
2017-08-30T16:58:14.719Z,99.99
2017-08-30T16:59:36.946Z,99.99
2017-08-30T17:00:59.801Z,99.99
2017-08-30T17:02:21.724Z,99.99
2017-08-30T17:03:44.270Z,99.99
2017-08-30T17:05:06.795Z,99.99
2017-08-30T17:06:29.729Z,99.99
2017-08-30T17:07:52.344Z,99.99
2017-08-30T17:09:14.566Z,99.99
2017-08-30T17:10:37.100Z,99.99
2017-08-30T17:12:00.019Z,99.99
2017-08-30T17:13:21.613Z,99.99
2017-08-30T17:14:43.879Z,99.99
2017-08-30T17:16:06.579Z,99.99
2017-08-30T17:17:29.464Z,99.99
2017-08-30T17:18:51.664Z,99.99
2017-08-30T17:20:14.193Z,99.99
2017-08-30T17:21:35.736Z,99.99
2017-08-30T17:22:58.592Z,99.99
2017-08-30T17:24:21.177Z,99.99
2017-08-30T17:25:43.437Z,99.99
2017-08-30T17:27:05.960Z,99.99
2017-08-30T17:28:28.880Z,99.99
2017-08-30T17:29:51.396Z,99.99
2017-08-30T17:31:13.316Z,99.99
2017-08-30T17:32:35.804Z,99.99
2017-08-30T17:33:58.373Z,99.99
2017-08-30T17:35:21.047Z,99.99
2017-08-30T17:36:43.614Z,99.99
2017-08-30T17:38:05.897Z,99.99
2017-08-30T17:39:28.440Z,99.99